UAL596 KLAS-KDEN
Flight info
| Callsign | UAL596 |
|---|---|
| Flight time | 1h 15m |
| Altitude | 37000 |
| Route | GIDGT3 TUKRR DCT BUMMP SSKII4 |
| Aircraft | A320/M-SDE3FGHIRWY/LB1 |
Departure
| Time | 2026-05-04 14:55 |
|---|---|
| Airport | Harry Reid International Airport (KLAS) |
Arrival
| Time | 2026-05-04 16:11 |
|---|---|
| Airport | Denver International Airport (KDEN) |
| Time | Latitude | Longitude | Altitude | Speed | Heading |
|---|---|---|---|---|---|
| 2026-05-04 14:08 | 36.08312 | -115.13999 | 2075 ft | 0 kts | 133° |
| 2026-05-04 14:38 | 36.08316 | -115.14004 | 2093 ft | 4 kts | 133° |
| 2026-05-04 14:38 | 36.08334 | -115.14029 | 2092 ft | 4 kts | 133° |
| 2026-05-04 14:38 | 36.08349 | -115.14049 | 2092 ft | 3 kts | 133° |
| 2026-05-04 14:39 | 36.08365 | -115.14061 | 2092 ft | 4 kts | 210° |
| 2026-05-04 14:39 | 36.08383 | -115.14041 | 2092 ft | 3 kts | 225° |
| 2026-05-04 14:39 | 36.08386 | -115.14038 | 2092 ft | 0 kts | 225° |
| 2026-05-04 14:43 | 36.08379 | -115.14047 | 2092 ft | 3 kts | 225° |
| 2026-05-04 14:43 | 36.08356 | -115.14077 | 2092 ft | 6 kts | 225° |
| 2026-05-04 14:43 | 36.08316 | -115.14127 | 2093 ft | 9 kts | 225° |
| 2026-05-04 14:43 | 36.08259 | -115.14162 | 2095 ft | 10 kts | 182° |
| 2026-05-04 14:44 | 36.08174 | -115.14160 | 2095 ft | 14 kts | 180° |
| 2026-05-04 14:44 | 36.08065 | -115.14158 | 2095 ft | 16 kts | 180° |
| 2026-05-04 14:44 | 36.07961 | -115.14158 | 2095 ft | 15 kts | 180° |
| 2026-05-04 14:44 | 36.07888 | -115.14157 | 2095 ft | 0 kts | 179° |
| 2026-05-04 14:45 | 36.07887 | -115.14157 | 2095 ft | 1 kts | 179° |
| 2026-05-04 14:45 | 36.07868 | -115.14157 | 2094 ft | 5 kts | 180° |
| 2026-05-04 14:46 | 36.07826 | -115.14158 | 2094 ft | 8 kts | 181° |
| 2026-05-04 14:46 | 36.07764 | -115.14148 | 2094 ft | 10 kts | 147° |
| 2026-05-04 14:46 | 36.07753 | -115.14059 | 2094 ft | 11 kts | 86° |
| 2026-05-04 14:46 | 36.07754 | -115.13957 | 2093 ft | 12 kts | 90° |
| 2026-05-04 14:47 | 36.07754 | -115.13842 | 2093 ft | 15 kts | 90° |
| 2026-05-04 14:47 | 36.07754 | -115.13704 | 2092 ft | 16 kts | 89° |
| 2026-05-04 14:47 | 36.07755 | -115.13566 | 2092 ft | 17 kts | 90° |
| 2026-05-04 14:47 | 36.07754 | -115.13413 | 2090 ft | 18 kts | 91° |
| 2026-05-04 14:48 | 36.07754 | -115.13266 | 2087 ft | 18 kts | 89° |
| 2026-05-04 14:48 | 36.07754 | -115.13117 | 2083 ft | 16 kts | 89° |
| 2026-05-04 14:48 | 36.07754 | -115.12990 | 2077 ft | 14 kts | 90° |
| 2026-05-04 14:48 | 36.07755 | -115.12847 | 2071 ft | 18 kts | 90° |
| 2026-05-04 14:49 | 36.07755 | -115.12721 | 2066 ft | 15 kts | 89° |
| 2026-05-04 14:49 | 36.07779 | -115.12633 | 2063 ft | 8 kts | 25° |
| 2026-05-04 14:49 | 36.07832 | -115.12612 | 2062 ft | 9 kts | 65° |
| 2026-05-04 14:49 | 36.07828 | -115.12515 | 2059 ft | 14 kts | 91° |
| 2026-05-04 14:50 | 36.07828 | -115.12389 | 2057 ft | 13 kts | 90° |
| 2026-05-04 14:50 | 36.07827 | -115.12288 | 2054 ft | 9 kts | 92° |
| 2026-05-04 14:50 | 36.07800 | -115.12224 | 2052 ft | 9 kts | 132° |
| 2026-05-04 14:50 | 36.07766 | -115.12174 | 2050 ft | 4 kts | 129° |
| 2026-05-04 14:51 | 36.07752 | -115.12153 | 2049 ft | 5 kts | 129° |
| 2026-05-04 14:51 | 36.07743 | -115.12140 | 2049 ft | 0 kts | 133° |
| 2026-05-04 14:52 | 36.07739 | -115.12136 | 2049 ft | 3 kts | 134° |
| 2026-05-04 14:52 | 36.07707 | -115.12122 | 2050 ft | 8 kts | 178° |
| 2026-05-04 14:52 | 36.07652 | -115.12127 | 2048 ft | 6 kts | 198° |
| 2026-05-04 14:52 | 36.07641 | -115.12164 | 2051 ft | 2 kts | 278° |
| 2026-05-04 14:53 | 36.07642 | -115.12179 | 2049 ft | 1 kts | 269° |
| 2026-05-04 14:53 | 36.07642 | -115.12182 | 2049 ft | 0 kts | 271° |
| 2026-05-04 14:54 | 36.07642 | -115.12201 | 2050 ft | 8 kts | 271° |
| 2026-05-04 14:54 | 36.07639 | -115.12470 | 2057 ft | 63 kts | 268° |
| 2026-05-04 14:54 | 36.07642 | -115.13245 | 2086 ft | 117 kts | 270° |
| 2026-05-04 14:55 | 36.07639 | -115.14459 | 2098 ft | 160 kts | 270° |
| 2026-05-04 14:55 | 36.07621 | -115.15948 | 2371 ft | 176 kts | 264° |
| 2026-05-04 14:55 | 36.07606 | -115.17467 | 3041 ft | 177 kts | 265° |
| 2026-05-04 14:55 | 36.07602 | -115.18478 | 3472 ft | 179 kts | 267° |
| 2026-05-04 14:56 | 36.07600 | -115.20043 | 4001 ft | 188 kts | 266° |
| 2026-05-04 14:56 | 36.07603 | -115.21746 | 4336 ft | 207 kts | 266° |
| 2026-05-04 14:56 | 36.07598 | -115.23635 | 4632 ft | 231 kts | 266° |
| 2026-05-04 14:56 | 36.07600 | -115.25605 | 5480 ft | 229 kts | 266° |
| 2026-05-04 14:57 | 36.07958 | -115.27552 | 6195 ft | 242 kts | 299° |
| 2026-05-04 14:57 | 36.09198 | -115.29013 | 6724 ft | 260 kts | 333° |
| 2026-05-04 14:57 | 36.10974 | -115.29657 | 7268 ft | 274 kts | 349° |
| 2026-05-04 14:57 | 36.12896 | -115.29687 | 8063 ft | 277 kts | 14° |
| 2026-05-04 14:58 | 36.14693 | -115.28797 | 8817 ft | 280 kts | 33° |
| 2026-05-04 14:58 | 36.16256 | -115.27294 | 9391 ft | 292 kts | 49° |
| 2026-05-04 14:58 | 36.17370 | -115.25483 | 9867 ft | 300 kts | 63° |
| 2026-05-04 14:58 | 36.18243 | -115.23107 | 10327 ft | 313 kts | 72° |
| 2026-05-04 14:59 | 36.19046 | -115.20494 | 10534 ft | 335 kts | 75° |
| 2026-05-04 14:59 | 36.19548 | -115.17609 | 10822 ft | 348 kts | 88° |
| 2026-05-04 14:59 | 36.19584 | -115.11532 | 12105 ft | 357 kts | 93° |
| 2026-05-04 15:00 | 36.19591 | -115.08441 | 12694 ft | 362 kts | 92° |
| 2026-05-04 15:00 | 36.19601 | -115.05304 | 13355 ft | 366 kts | 92° |
| 2026-05-04 15:00 | 36.19613 | -115.02093 | 13984 ft | 371 kts | 92° |
| 2026-05-04 15:01 | 36.19630 | -114.95615 | 15012 ft | 382 kts | 93° |
| 2026-05-04 15:01 | 36.19632 | -114.92306 | 15520 ft | 388 kts | 93° |
| 2026-05-04 15:01 | 36.19626 | -114.88938 | 16020 ft | 393 kts | 93° |
| 2026-05-04 15:01 | 36.19617 | -114.85519 | 16472 ft | 401 kts | 93° |
| 2026-05-04 15:02 | 36.19608 | -114.82041 | 16946 ft | 408 kts | 94° |
| 2026-05-04 15:02 | 36.19599 | -114.78547 | 17451 ft | 413 kts | 94° |
| 2026-05-04 15:02 | 36.19589 | -114.74909 | 17966 ft | 420 kts | 94° |
| 2026-05-04 15:02 | 36.19581 | -114.71322 | 18424 ft | 425 kts | 94° |
| 2026-05-04 15:03 | 36.19571 | -114.67636 | 18942 ft | 430 kts | 94° |
| 2026-05-04 15:03 | 36.19562 | -114.63902 | 19437 ft | 435 kts | 94° |
| 2026-05-04 15:03 | 36.19553 | -114.60130 | 19965 ft | 439 kts | 94° |
| 2026-05-04 15:03 | 36.19542 | -114.56326 | 20467 ft | 444 kts | 94° |
| 2026-05-04 15:04 | 36.19531 | -114.52474 | 20956 ft | 449 kts | 94° |
| 2026-05-04 15:04 | 36.19520 | -114.48586 | 21436 ft | 453 kts | 94° |
| 2026-05-04 15:04 | 36.19511 | -114.44671 | 21900 ft | 458 kts | 94° |
| 2026-05-04 15:04 | 36.19502 | -114.40712 | 22363 ft | 462 kts | 94° |
| 2026-05-04 15:05 | 36.19490 | -114.36710 | 22808 ft | 466 kts | 94° |
| 2026-05-04 15:05 | 36.19473 | -114.32672 | 23279 ft | 469 kts | 94° |
| 2026-05-04 15:05 | 36.19453 | -114.28614 | 23650 ft | 473 kts | 94° |
| 2026-05-04 15:05 | 36.19466 | -114.24520 | 24017 ft | 479 kts | 90° |
| 2026-05-04 15:06 | 36.19842 | -114.20378 | 24327 ft | 487 kts | 84° |
| 2026-05-04 15:06 | 36.20346 | -114.16210 | 24632 ft | 491 kts | 84° |
| 2026-05-04 15:06 | 36.20857 | -114.12000 | 24933 ft | 496 kts | 84° |
| 2026-05-04 15:07 | 36.21881 | -114.03491 | 25577 ft | 503 kts | 85° |
| 2026-05-04 15:07 | 36.22393 | -113.99174 | 25880 ft | 508 kts | 85° |
| 2026-05-04 15:07 | 36.22899 | -113.94877 | 26161 ft | 512 kts | 85° |
| 2026-05-04 15:07 | 36.23416 | -113.90492 | 26444 ft | 517 kts | 85° |
| 2026-05-04 15:08 | 36.23936 | -113.86061 | 26762 ft | 521 kts | 85° |
| 2026-05-04 15:08 | 36.24456 | -113.81600 | 27060 ft | 525 kts | 85° |
| 2026-05-04 15:08 | 36.24980 | -113.77105 | 27353 ft | 529 kts | 85° |
| 2026-05-04 15:08 | 36.25510 | -113.72574 | 27679 ft | 533 kts | 85° |
| 2026-05-04 15:09 | 36.26041 | -113.68016 | 28036 ft | 536 kts | 85° |
| 2026-05-04 15:09 | 36.26574 | -113.63413 | 28305 ft | 540 kts | 86° |
| 2026-05-04 15:09 | 36.27108 | -113.58778 | 28605 ft | 544 kts | 86° |
| 2026-05-04 15:10 | 36.28171 | -113.49424 | 29151 ft | 551 kts | 86° |
| 2026-05-04 15:10 | 36.28705 | -113.44703 | 29458 ft | 554 kts | 86° |
| 2026-05-04 15:10 | 36.29779 | -113.35235 | 30112 ft | 556 kts | 86° |
| 2026-05-04 15:11 | 36.30313 | -113.30482 | 30387 ft | 557 kts | 86° |
| 2026-05-04 15:11 | 36.30890 | -113.25726 | 30703 ft | 560 kts | 83° |
| 2026-05-04 15:11 | 36.31873 | -113.21032 | 31081 ft | 565 kts | 73° |
| 2026-05-04 15:11 | 36.33323 | -113.16498 | 31474 ft | 567 kts | 67° |
| 2026-05-04 15:12 | 36.34917 | -113.12022 | 31816 ft | 567 kts | 67° |
| 2026-05-04 15:12 | 36.36503 | -113.07529 | 32146 ft | 568 kts | 67° |
| 2026-05-04 15:12 | 36.38085 | -113.03027 | 32512 ft | 568 kts | 67° |
| 2026-05-04 15:12 | 36.39662 | -112.98524 | 32901 ft | 568 kts | 67° |
| 2026-05-04 15:13 | 36.41238 | -112.94020 | 33285 ft | 569 kts | 67° |
| 2026-05-04 15:13 | 36.42811 | -112.89519 | 33656 ft | 569 kts | 67° |
| 2026-05-04 15:13 | 36.44392 | -112.85002 | 34008 ft | 569 kts | 66° |
| 2026-05-04 15:13 | 36.45970 | -112.80491 | 34342 ft | 569 kts | 66° |
| 2026-05-04 15:14 | 36.47526 | -112.76030 | 34671 ft | 568 kts | 66° |
| 2026-05-04 15:14 | 36.49098 | -112.71517 | 35053 ft | 567 kts | 66° |
| 2026-05-04 15:14 | 36.50658 | -112.67032 | 35375 ft | 566 kts | 65° |
| 2026-05-04 15:14 | 36.52220 | -112.62540 | 35687 ft | 565 kts | 65° |
| 2026-05-04 15:15 | 36.53781 | -112.58044 | 35992 ft | 564 kts | 65° |
| 2026-05-04 15:15 | 36.55334 | -112.53556 | 36230 ft | 564 kts | 65° |
| 2026-05-04 15:15 | 36.56883 | -112.49069 | 36502 ft | 564 kts | 65° |
| 2026-05-04 15:16 | 36.59977 | -112.40088 | 36874 ft | 567 kts | 64° |
| 2026-05-04 15:16 | 36.61535 | -112.35562 | 36871 ft | 569 kts | 64° |
| 2026-05-04 15:17 | 36.66211 | -112.21926 | 36874 ft | 570 kts | 64° |
| 2026-05-04 15:17 | 36.70870 | -112.08270 | 36872 ft | 570 kts | 64° |
| 2026-05-04 15:18 | 36.73967 | -111.99188 | 36870 ft | 570 kts | 64° |
| 2026-05-04 15:19 | 36.78603 | -111.85511 | 36875 ft | 571 kts | 64° |
| 2026-05-04 15:19 | 36.83208 | -111.71857 | 36877 ft | 571 kts | 64° |
| 2026-05-04 15:20 | 36.86597 | -111.62875 | 36906 ft | 564 kts | 54° |
| 2026-05-04 15:20 | 36.90630 | -111.54452 | 37020 ft | 566 kts | 54° |
| 2026-05-04 15:21 | 36.94642 | -111.46041 | 37008 ft | 567 kts | 54° |
| 2026-05-04 15:22 | 37.00698 | -111.33271 | 36991 ft | 569 kts | 54° |
| 2026-05-04 15:22 | 37.06745 | -111.20463 | 36930 ft | 569 kts | 55° |
| 2026-05-04 15:23 | 37.10773 | -111.11905 | 36889 ft | 569 kts | 54° |
| 2026-05-04 15:23 | 37.14795 | -111.03344 | 36875 ft | 569 kts | 54° |
| 2026-05-04 15:24 | 37.22795 | -110.86271 | 36888 ft | 568 kts | 55° |
| 2026-05-04 15:25 | 37.26792 | -110.77685 | 36874 ft | 571 kts | 55° |
| 2026-05-04 15:26 | 37.32806 | -110.64744 | 36859 ft | 572 kts | 55° |
| 2026-05-04 15:26 | 37.38831 | -110.51748 | 36877 ft | 574 kts | 55° |
| 2026-05-04 15:27 | 37.44842 | -110.38702 | 36890 ft | 574 kts | 55° |
| 2026-05-04 15:28 | 37.50165 | -110.27123 | 36892 ft | 574 kts | 55° |
| 2026-05-04 15:29 | 37.56149 | -110.14053 | 36885 ft | 573 kts | 55° |
| 2026-05-04 15:30 | 37.70031 | -109.83484 | 36895 ft | 573 kts | 55° |
| 2026-05-04 15:31 | 37.75967 | -109.70371 | 36899 ft | 572 kts | 54° |
| 2026-05-04 15:32 | 37.85801 | -109.48462 | 36959 ft | 572 kts | 54° |
| 2026-05-04 15:34 | 37.95565 | -109.26561 | 36921 ft | 570 kts | 54° |
| 2026-05-04 15:34 | 38.01383 | -109.13465 | 36933 ft | 570 kts | 54° |
| 2026-05-04 15:35 | 38.07183 | -109.00318 | 36933 ft | 567 kts | 54° |
| 2026-05-04 15:36 | 38.12834 | -108.87129 | 36913 ft | 568 kts | 57° |
| 2026-05-04 15:36 | 38.16334 | -108.78114 | 36915 ft | 569 kts | 59° |
| 2026-05-04 15:37 | 38.19772 | -108.69052 | 36925 ft | 568 kts | 58° |
| 2026-05-04 15:37 | 38.23258 | -108.60035 | 36918 ft | 567 kts | 58° |
| 2026-05-04 15:38 | 38.26782 | -108.51073 | 36918 ft | 566 kts | 57° |
| 2026-05-04 15:38 | 38.30297 | -108.42101 | 36928 ft | 566 kts | 58° |
| 2026-05-04 15:39 | 38.33781 | -108.33109 | 36925 ft | 565 kts | 58° |
| 2026-05-04 15:40 | 38.38945 | -108.19681 | 36954 ft | 558 kts | 58° |
| 2026-05-04 15:40 | 38.42367 | -108.10795 | 37027 ft | 558 kts | 58° |
| 2026-05-04 15:41 | 38.45789 | -108.01900 | 37079 ft | 559 kts | 58° |
| 2026-05-04 15:41 | 38.49171 | -107.93012 | 37101 ft | 559 kts | 59° |
| 2026-05-04 15:42 | 38.52536 | -107.84046 | 37107 ft | 559 kts | 59° |
| 2026-05-04 15:42 | 38.54218 | -107.79562 | 36907 ft | 560 kts | 59° |
| 2026-05-04 15:42 | 38.55908 | -107.75066 | 36904 ft | 559 kts | 59° |
| 2026-05-04 15:43 | 38.59278 | -107.66111 | 36920 ft | 558 kts | 58° |
| 2026-05-04 15:43 | 38.62633 | -107.57162 | 36937 ft | 557 kts | 58° |
| 2026-05-04 15:44 | 38.65969 | -107.48213 | 36941 ft | 557 kts | 59° |
| 2026-05-04 15:44 | 38.69330 | -107.39290 | 36954 ft | 556 kts | 58° |
| 2026-05-04 15:45 | 38.72712 | -107.30390 | 36973 ft | 554 kts | 58° |
| 2026-05-04 15:45 | 38.76046 | -107.21577 | 36928 ft | 544 kts | 59° |
| 2026-05-04 15:46 | 38.79322 | -107.12841 | 36954 ft | 542 kts | 59° |
| 2026-05-04 15:46 | 38.82575 | -107.04132 | 36987 ft | 542 kts | 59° |
| 2026-05-04 15:47 | 38.85826 | -106.95425 | 36978 ft | 540 kts | 59° |
| 2026-05-04 15:47 | 38.89075 | -106.86716 | 36980 ft | 539 kts | 59° |
| 2026-05-04 15:48 | 38.92308 | -106.78034 | 36993 ft | 538 kts | 59° |
| 2026-05-04 15:48 | 38.97115 | -106.65066 | 36665 ft | 536 kts | 59° |
| 2026-05-04 15:49 | 38.98706 | -106.60742 | 36404 ft | 535 kts | 59° |
| 2026-05-04 15:49 | 39.00296 | -106.56417 | 36180 ft | 535 kts | 59° |
| 2026-05-04 15:49 | 39.01886 | -106.52085 | 35522 ft | 538 kts | 59° |
| 2026-05-04 15:49 | 39.03491 | -106.47716 | 34740 ft | 541 kts | 59° |
| 2026-05-04 15:50 | 39.05090 | -106.43338 | 34201 ft | 539 kts | 59° |
| 2026-05-04 15:50 | 39.06683 | -106.38964 | 33406 ft | 540 kts | 59° |
| 2026-05-04 15:50 | 39.08280 | -106.34579 | 32630 ft | 539 kts | 60° |
| 2026-05-04 15:50 | 39.09863 | -106.30224 | 32116 ft | 533 kts | 60° |
| 2026-05-04 15:51 | 39.11417 | -106.25937 | 31675 ft | 525 kts | 60° |
| 2026-05-04 15:51 | 39.12946 | -106.21707 | 31204 ft | 518 kts | 60° |
| 2026-05-04 15:51 | 39.14457 | -106.17524 | 30701 ft | 512 kts | 60° |
| 2026-05-04 15:51 | 39.15953 | -106.13380 | 30203 ft | 506 kts | 60° |
| 2026-05-04 15:52 | 39.17431 | -106.09278 | 29191 ft | 500 kts | 60° |
| 2026-05-04 15:52 | 39.18880 | -106.05243 | 28109 ft | 491 kts | 61° |
| 2026-05-04 15:52 | 39.20298 | -106.01286 | 27154 ft | 479 kts | 62° |
| 2026-05-04 15:52 | 39.21676 | -105.97436 | 26254 ft | 467 kts | 62° |
| 2026-05-04 15:53 | 39.23022 | -105.93671 | 25310 ft | 455 kts | 63° |
| 2026-05-04 15:53 | 39.24335 | -105.90001 | 24492 ft | 444 kts | 63° |
| 2026-05-04 15:53 | 39.25622 | -105.86428 | 23695 ft | 433 kts | 64° |
| 2026-05-04 15:53 | 39.26871 | -105.82967 | 23246 ft | 414 kts | 64° |
| 2026-05-04 15:54 | 39.28066 | -105.79664 | 22763 ft | 398 kts | 64° |
| 2026-05-04 15:54 | 39.29226 | -105.76455 | 21931 ft | 392 kts | 64° |
| 2026-05-04 15:54 | 39.30376 | -105.73260 | 20892 ft | 393 kts | 64° |
| 2026-05-04 15:54 | 39.31513 | -105.70086 | 20516 ft | 386 kts | 64° |
| 2026-05-04 15:55 | 39.32631 | -105.66963 | 20268 ft | 382 kts | 64° |
| 2026-05-04 15:55 | 39.33755 | -105.63852 | 20010 ft | 380 kts | 64° |
| 2026-05-04 15:55 | 39.34881 | -105.60775 | 19766 ft | 377 kts | 64° |
| 2026-05-04 15:55 | 39.36002 | -105.57725 | 19519 ft | 375 kts | 64° |
| 2026-05-04 15:56 | 39.37104 | -105.54725 | 19297 ft | 373 kts | 64° |
| 2026-05-04 15:56 | 39.38213 | -105.51697 | 19051 ft | 371 kts | 64° |
| 2026-05-04 15:56 | 39.39312 | -105.48682 | 18788 ft | 370 kts | 64° |
| 2026-05-04 15:56 | 39.40396 | -105.45699 | 18552 ft | 363 kts | 64° |
| 2026-05-04 15:57 | 39.41300 | -105.42688 | 18313 ft | 355 kts | 75° |
| 2026-05-04 15:57 | 39.41695 | -105.39572 | 18074 ft | 348 kts | 87° |
| 2026-05-04 15:57 | 39.41720 | -105.36473 | 17805 ft | 341 kts | 90° |
| 2026-05-04 15:57 | 39.41730 | -105.33420 | 17523 ft | 339 kts | 90° |
| 2026-05-04 15:58 | 39.41744 | -105.30375 | 17138 ft | 337 kts | 89° |
| 2026-05-04 15:58 | 39.41760 | -105.27347 | 16692 ft | 337 kts | 89° |
| 2026-05-04 15:58 | 39.41778 | -105.24322 | 16282 ft | 336 kts | 88° |
| 2026-05-04 15:58 | 39.41794 | -105.21307 | 15938 ft | 332 kts | 88° |
| 2026-05-04 15:59 | 39.41810 | -105.18351 | 15506 ft | 327 kts | 88° |
| 2026-05-04 15:59 | 39.41825 | -105.15424 | 14957 ft | 323 kts | 88° |
| 2026-05-04 15:59 | 39.41839 | -105.12507 | 14533 ft | 325 kts | 89° |
| 2026-05-04 15:59 | 39.41849 | -105.09593 | 14185 ft | 323 kts | 88° |
| 2026-05-04 16:00 | 39.41857 | -105.06676 | 13821 ft | 322 kts | 88° |
| 2026-05-04 16:00 | 39.41868 | -105.03760 | 13384 ft | 324 kts | 88° |
| 2026-05-04 16:00 | 39.41874 | -105.01846 | 13232 ft | 319 kts | 89° |
| 2026-05-04 16:00 | 39.41883 | -104.99004 | 13188 ft | 310 kts | 88° |
| 2026-05-04 16:01 | 39.41893 | -104.96255 | 13061 ft | 302 kts | 88° |
| 2026-05-04 16:01 | 39.41963 | -104.93583 | 12918 ft | 292 kts | 82° |
| 2026-05-04 16:01 | 39.42193 | -104.90966 | 12601 ft | 292 kts | 81° |
| 2026-05-04 16:01 | 39.42424 | -104.88367 | 12318 ft | 290 kts | 81° |
| 2026-05-04 16:02 | 39.42654 | -104.85787 | 12035 ft | 285 kts | 81° |
| 2026-05-04 16:02 | 39.42879 | -104.83251 | 11762 ft | 283 kts | 81° |
| 2026-05-04 16:02 | 39.43327 | -104.78223 | 11211 ft | 280 kts | 81° |
| 2026-05-04 16:03 | 39.43668 | -104.75768 | 11025 ft | 272 kts | 69° |
| 2026-05-04 16:03 | 39.44350 | -104.73541 | 10973 ft | 262 kts | 65° |
| 2026-05-04 16:03 | 39.45086 | -104.71401 | 10980 ft | 258 kts | 56° |
| 2026-05-04 16:03 | 39.46212 | -104.69641 | 10979 ft | 252 kts | 36° |
| 2026-05-04 16:04 | 39.47683 | -104.68466 | 10982 ft | 247 kts | 18° |
| 2026-05-04 16:04 | 39.50981 | -104.67271 | 10989 ft | 246 kts | 12° |
| 2026-05-04 16:04 | 39.52643 | -104.66698 | 10989 ft | 247 kts | 11° |
| 2026-05-04 16:05 | 39.54326 | -104.66384 | 10944 ft | 245 kts | 358° |
| 2026-05-04 16:05 | 39.56031 | -104.66361 | 10547 ft | 250 kts | 358° |
| 2026-05-04 16:05 | 39.59568 | -104.66328 | 9836 ft | 251 kts | 358° |
| 2026-05-04 16:06 | 39.61267 | -104.66309 | 9519 ft | 243 kts | 358° |
| 2026-05-04 16:06 | 39.65589 | -104.66258 | 8750 ft | 220 kts | 358° |
| 2026-05-04 16:07 | 39.67584 | -104.66234 | 8390 ft | 214 kts | 358° |
| 2026-05-04 16:07 | 39.71929 | -104.66185 | 7588 ft | 204 kts | 357° |
| 2026-05-04 16:08 | 39.73346 | -104.66168 | 7331 ft | 203 kts | 357° |
| 2026-05-04 16:08 | 39.77393 | -104.66118 | 6607 ft | 172 kts | 357° |
| 2026-05-04 16:09 | 39.79637 | -104.66089 | 6155 ft | 155 kts | 357° |
| 2026-05-04 16:09 | 39.81780 | -104.66055 | 5643 ft | 151 kts | 355° |
| 2026-05-04 16:10 | 39.83804 | -104.66043 | 5365 ft | 120 kts | 0° |
| 2026-05-04 16:11 | 39.85168 | -104.66069 | 5364 ft | 25 kts | 339° |
| 2026-05-04 16:11 | 39.85308 | -104.66156 | 5364 ft | 21 kts | 334° |
| 2026-05-04 16:12 | 39.85547 | -104.66234 | 5364 ft | 14 kts | 0° |
| 2026-05-04 16:12 | 39.85928 | -104.66230 | 5364 ft | 19 kts | 1° |
| 2026-05-04 16:13 | 39.86020 | -104.66328 | 5366 ft | 14 kts | 270° |
| 2026-05-04 16:13 | 39.86056 | -104.66609 | 5365 ft | 16 kts | 290° |
| 2026-05-04 16:14 | 39.86063 | -104.66894 | 5366 ft | 13 kts | 270° |
| 2026-05-04 16:14 | 39.86064 | -104.67157 | 5365 ft | 16 kts | 271° |
| 2026-05-04 16:15 | 39.86000 | -104.67480 | 5366 ft | 11 kts | 273° |
| 2026-05-04 16:16 | 39.86006 | -104.67694 | 5366 ft | 13 kts | 270° |
| 2026-05-04 16:16 | 39.85964 | -104.67737 | 5364 ft | 3 kts | 180° |
| 2026-05-04 16:17 | 39.85942 | -104.67737 | 5366 ft | 0 kts | 180° |